sensor_id;sensor_type;location;lat;lon;timestamp;P1;durP1;ratioP1;P2;durP2;ratioP2
13568;SDS011;6856;51.460;7.158;2024-01-15T00:00:52;22.13;;;18.50;;
13568;SDS011;6856;51.460;7.158;2024-01-15T00:03:25;23.27;;;18.13;;
13568;SDS011;6856;51.460;7.158;2024-01-15T00:06:01;21.67;;;17.27;;
13568;SDS011;6856;51.460;7.158;2024-01-15T00:08:35;22.73;;;17.67;;
13568;SDS011;6856;51.460;7.158;2024-01-15T00:11:10;19.00;;;14.77;;
13568;SDS011;6856;51.460;7.158;2024-01-15T00:13:44;19.77;;;15.23;;
13568;SDS011;6856;51.460;7.158;2024-01-15T00:16:19;20.17;;;15.93;;
13568;SDS011;6856;51.460;7.158;2024-01-15T00:18:53;20.00;;;15.47;;
13568;SDS011;6856;51.460;7.158;2024-01-15T00:21:28;19.50;;;15.17;;
13568;SDS011;6856;51.460;7.158;2024-01-15T00:24:02;19.63;;;14.97;;
13568;SDS011;6856;51.460;7.158;2024-01-15T00:26:36;17.33;;;14.43;;
13568;SDS011;6856;51.460;7.158;2024-01-15T00:29:10;16.57;;;13.83;;
13568;SDS011;6856;51.460;7.158;2024-01-15T00:31:44;17.07;;;13.43;;
13568;SDS011;6856;51.460;7.158;2024-01-15T00:34:18;16.10;;;12.87;;
13568;SDS011;6856;51.460;7.158;2024-01-15T00:36:55;17.33;;;13.97;;
13568;SDS011;6856;51.460;7.158;2024-01-15T00:39:29;16.37;;;13.27;;
13568;SDS011;6856;51.460;7.158;2024-01-15T00:42:03;16.73;;;12.93;;
13568;SDS011;6856;51.460;7.158;2024-01-15T00:44:39;17.00;;;13.27;;
13568;SDS011;6856;51.460;7.158;2024-01-15T00:47:13;15.37;;;12.77;;
13568;SDS011;6856;51.460;7.158;2024-01-15T00:49:47;17.80;;;13.73;;
13568;SDS011;6856;51.460;7.158;2024-01-15T00:52:23;18.33;;;13.13;;
13568;SDS011;6856;51.460;7.158;2024-01-15T00:54:57;18.93;;;13.77;;
13568;SDS011;6856;51.460;7.158;2024-01-15T00:57:33;16.37;;;13.33;;
13568;SDS011;6856;51.460;7.158;2024-01-15T01:00:07;18.53;;;13.73;;
13568;SDS011;6856;51.460;7.158;2024-01-15T01:02:43;15.47;;;12.80;;
13568;SDS011;6856;51.460;7.158;2024-01-15T01:05:18;18.23;;;14.10;;
13568;SDS011;6856;51.460;7.158;2024-01-15T01:07:53;15.40;;;12.00;;
13568;SDS011;6856;51.460;7.158;2024-01-15T01:10:28;15.83;;;12.47;;
13568;SDS011;6856;51.460;7.158;2024-01-15T01:13:02;15.07;;;12.47;;
13568;SDS011;6856;51.460;7.158;2024-01-15T01:15:47;16.90;;;13.37;;
13568;SDS011;6856;51.460;7.158;2024-01-15T01:18:29;16.23;;;12.43;;
13568;SDS011;6856;51.460;7.158;2024-01-15T01:21:04;16.03;;;12.27;;
13568;SDS011;6856;51.460;7.158;2024-01-15T01:23:40;16.00;;;12.57;;
13568;SDS011;6856;51.460;7.158;2024-01-15T01:26:15;16.53;;;12.17;;
13568;SDS011;6856;51.460;7.158;2024-01-15T01:28:50;16.43;;;12.83;;
13568;SDS011;6856;51.460;7.158;2024-01-15T01:31:24;18.07;;;13.30;;
13568;SDS011;6856;51.460;7.158;2024-01-15T01:33:58;16.33;;;12.53;;
13568;SDS011;6856;51.460;7.158;2024-01-15T01:36:33;15.87;;;12.77;;
13568;SDS011;6856;51.460;7.158;2024-01-15T01:39:10;17.13;;;13.13;;
13568;SDS011;6856;51.460;7.158;2024-01-15T01:41:44;17.60;;;12.70;;
13568;SDS011;6856;51.460;7.158;2024-01-15T01:44:17;14.70;;;12.70;;
13568;SDS011;6856;51.460;7.158;2024-01-15T01:46:51;15.13;;;12.23;;
13568;SDS011;6856;51.460;7.158;2024-01-15T01:49:27;15.10;;;12.57;;
13568;SDS011;6856;51.460;7.158;2024-01-15T01:52:02;15.90;;;11.90;;
13568;SDS011;6856;51.460;7.158;2024-01-15T01:54:40;13.97;;;11.97;;
13568;SDS011;6856;51.460;7.158;2024-01-15T01:57:18;14.87;;;12.33;;
13568;SDS011;6856;51.460;7.158;2024-01-15T01:59:52;17.23;;;12.77;;
13568;SDS011;6856;51.460;7.158;2024-01-15T02:02:30;14.40;;;12.23;;
13568;SDS011;6856;51.460;7.158;2024-01-15T02:05:06;14.83;;;12.30;;
13568;SDS011;6856;51.460;7.158;2024-01-15T02:07:41;13.30;;;11.30;;
13568;SDS011;6856;51.460;7.158;2024-01-15T02:10:18;13.67;;;10.80;;
13568;SDS011;6856;51.460;7.158;2024-01-15T02:12:52;13.60;;;11.17;;
13568;SDS011;6856;51.460;7.158;2024-01-15T02:15:26;13.77;;;10.87;;
13568;SDS011;6856;51.460;7.158;2024-01-15T02:18:01;14.57;;;11.27;;
13568;SDS011;6856;51.460;7.158;2024-01-15T02:20:39;14.23;;;11.13;;
13568;SDS011;6856;51.460;7.158;2024-01-15T02:23:17;12.60;;;9.70;;
13568;SDS011;6856;51.460;7.158;2024-01-15T02:25:52;14.77;;;10.03;;
13568;SDS011;6856;51.460;7.158;2024-01-15T02:28:29;12.33;;;9.40;;
13568;SDS011;6856;51.460;7.158;2024-01-15T02:31:05;12.57;;;10.03;;
13568;SDS011;6856;51.460;7.158;2024-01-15T02:33:43;13.20;;;9.83;;
13568;SDS011;6856;51.460;7.158;2024-01-15T02:36:19;16.73;;;10.37;;
13568;SDS011;6856;51.460;7.158;2024-01-15T02:38:54;11.97;;;9.83;;
13568;SDS011;6856;51.460;7.158;2024-01-15T02:41:28;14.40;;;10.40;;
13568;SDS011;6856;51.460;7.158;2024-01-15T02:44:03;16.53;;;10.30;;
13568;SDS011;6856;51.460;7.158;2024-01-15T02:46:40;14.17;;;10.23;;
13568;SDS011;6856;51.460;7.158;2024-01-15T02:49:14;16.53;;;10.50;;
13568;SDS011;6856;51.460;7.158;2024-01-15T02:51:49;11.90;;;9.47;;
13568;SDS011;6856;51.460;7.158;2024-01-15T02:54:24;13.50;;;10.37;;
13568;SDS011;6856;51.460;7.158;2024-01-15T02:56:58;18.30;;;10.30;;
13568;SDS011;6856;51.460;7.158;2024-01-15T02:59:35;14.67;;;9.87;;
13568;SDS011;6856;51.460;7.158;2024-01-15T03:02:09;13.33;;;9.70;;
13568;SDS011;6856;51.460;7.158;2024-01-15T03:04:43;11.97;;;9.30;;
13568;SDS011;6856;51.460;7.158;2024-01-15T03:07:18;14.83;;;9.73;;
13568;SDS011;6856;51.460;7.158;2024-01-15T03:09:54;13.03;;;9.40;;
13568;SDS011;6856;51.460;7.158;2024-01-15T03:12:27;12.83;;;9.13;;
13568;SDS011;6856;51.460;7.158;2024-01-15T03:15:01;12.30;;;8.20;;
13568;SDS011;6856;51.460;7.158;2024-01-15T03:17:36;12.50;;;9.23;;
13568;SDS011;6856;51.460;7.158;2024-01-15T03:20:10;10.60;;;8.90;;
13568;SDS011;6856;51.460;7.158;2024-01-15T03:22:45;12.33;;;9.00;;
13568;SDS011;6856;51.460;7.158;2024-01-15T03:25:20;12.53;;;8.53;;
13568;SDS011;6856;51.460;7.158;2024-01-15T03:27:54;12.13;;;8.47;;
13568;SDS011;6856;51.460;7.158;2024-01-15T03:30:28;10.40;;;7.97;;
13568;SDS011;6856;51.460;7.158;2024-01-15T03:33:03;13.10;;;8.70;;
13568;SDS011;6856;51.460;7.158;2024-01-15T03:35:36;10.97;;;8.40;;
13568;SDS011;6856;51.460;7.158;2024-01-15T03:38:10;12.07;;;8.53;;
13568;SDS011;6856;51.460;7.158;2024-01-15T03:40:45;12.00;;;8.77;;
13568;SDS011;6856;51.460;7.158;2024-01-15T03:43:19;10.60;;;8.73;;
13568;SDS011;6856;51.460;7.158;2024-01-15T03:45:55;10.73;;;8.33;;
13568;SDS011;6856;51.460;7.158;2024-01-15T03:48:28;12.23;;;8.97;;
13568;SDS011;6856;51.460;7.158;2024-01-15T03:51:03;13.13;;;9.20;;
13568;SDS011;6856;51.460;7.158;2024-01-15T03:53:38;10.40;;;7.93;;
13568;SDS011;6856;51.460;7.158;2024-01-15T03:56:15;9.93;;;7.53;;
13568;SDS011;6856;51.460;7.158;2024-01-15T03:58:49;11.23;;;8.00;;
13568;SDS011;6856;51.460;7.158;2024-01-15T04:01:24;12.03;;;8.73;;
13568;SDS011;6856;51.460;7.158;2024-01-15T04:03:58;10.43;;;8.37;;
13568;SDS011;6856;51.460;7.158;2024-01-15T04:06:34;10.57;;;8.83;;
13568;SDS011;6856;51.460;7.158;2024-01-15T04:09:08;12.17;;;9.60;;
13568;SDS011;6856;51.460;7.158;2024-01-15T04:11:44;11.40;;;9.50;;
13568;SDS011;6856;51.460;7.158;2024-01-15T04:14:17;13.40;;;10.03;;
13568;SDS011;6856;51.460;7.158;2024-01-15T04:16:53;12.17;;;9.60;;
13568;SDS011;6856;51.460;7.158;2024-01-15T04:19:26;12.83;;;10.03;;
13568;SDS011;6856;51.460;7.158;2024-01-15T04:22:01;12.07;;;9.87;;
13568;SDS011;6856;51.460;7.158;2024-01-15T04:24:35;12.80;;;10.03;;
13568;SDS011;6856;51.460;7.158;2024-01-15T04:27:11;14.47;;;10.63;;
13568;SDS011;6856;51.460;7.158;2024-01-15T04:29:45;14.70;;;10.40;;
13568;SDS011;6856;51.460;7.158;2024-01-15T04:32:19;11.13;;;9.97;;
13568;SDS011;6856;51.460;7.158;2024-01-15T04:34:55;15.20;;;11.80;;
13568;SDS011;6856;51.460;7.158;2024-01-15T04:37:30;13.47;;;11.53;;
13568;SDS011;6856;51.460;7.158;2024-01-15T04:40:06;12.77;;;10.60;;
13568;SDS011;6856;51.460;7.158;2024-01-15T04:42:42;12.70;;;10.33;;
13568;SDS011;6856;51.460;7.158;2024-01-15T04:45:17;13.90;;;10.80;;
13568;SDS011;6856;51.460;7.158;2024-01-15T04:47:54;14.07;;;10.77;;
13568;SDS011;6856;51.460;7.158;2024-01-15T04:50:28;12.07;;;10.77;;
13568;SDS011;6856;51.460;7.158;2024-01-15T04:53:05;14.87;;;12.03;;
13568;SDS011;6856;51.460;7.158;2024-01-15T04:55:43;13.77;;;11.33;;
13568;SDS011;6856;51.460;7.158;2024-01-15T04:58:18;11.80;;;10.47;;
13568;SDS011;6856;51.460;7.158;2024-01-15T05:00:56;13.40;;;11.07;;
13568;SDS011;6856;51.460;7.158;2024-01-15T05:03:32;12.93;;;10.73;;
13568;SDS011;6856;51.460;7.158;2024-01-15T05:06:10;13.70;;;11.17;;
13568;SDS011;6856;51.460;7.158;2024-01-15T05:08:47;15.30;;;12.00;;
13568;SDS011;6856;51.460;7.158;2024-01-15T05:11:20;13.73;;;12.23;;
13568;SDS011;6856;51.460;7.158;2024-01-15T05:13:56;11.60;;;10.47;;
13568;SDS011;6856;51.460;7.158;2024-01-15T05:16:30;12.70;;;10.50;;
13568;SDS011;6856;51.460;7.158;2024-01-15T05:19:04;12.80;;;10.90;;
13568;SDS011;6856;51.460;7.158;2024-01-15T05:21:46;13.27;;;10.50;;
13568;SDS011;6856;51.460;7.158;2024-01-15T05:24:22;12.73;;;10.40;;
13568;SDS011;6856;51.460;7.158;2024-01-15T05:27:00;12.10;;;10.27;;
13568;SDS011;6856;51.460;7.158;2024-01-15T05:29:40;11.23;;;10.03;;
13568;SDS011;6856;51.460;7.158;2024-01-15T05:32:15;13.57;;;10.93;;
13568;SDS011;6856;51.460;7.158;2024-01-15T05:34:50;14.07;;;11.13;;
13568;SDS011;6856;51.460;7.158;2024-01-15T05:37:25;14.03;;;10.57;;
13568;SDS011;6856;51.460;7.158;2024-01-15T05:40:02;11.03;;;9.73;;
13568;SDS011;6856;51.460;7.158;2024-01-15T05:42:42;11.87;;;10.67;;
13568;SDS011;6856;51.460;7.158;2024-01-15T05:45:17;12.90;;;9.93;;
13568;SDS011;6856;51.460;7.158;2024-01-15T05:47:51;12.53;;;10.40;;
13568;SDS011;6856;51.460;7.158;2024-01-15T05:50:27;10.60;;;9.47;;
13568;SDS011;6856;51.460;7.158;2024-01-15T05:53:04;10.77;;;9.67;;
13568;SDS011;6856;51.460;7.158;2024-01-15T05:55:40;10.37;;;9.27;;
13568;SDS011;6856;51.460;7.158;2024-01-15T05:58:13;11.63;;;10.27;;
13568;SDS011;6856;51.460;7.158;2024-01-15T06:00:49;12.57;;;10.00;;
13568;SDS011;6856;51.460;7.158;2024-01-15T06:03:27;10.43;;;9.33;;
13568;SDS011;6856;51.460;7.158;2024-01-15T06:06:01;12.20;;;9.97;;
13568;SDS011;6856;51.460;7.158;2024-01-15T06:08:37;12.90;;;10.80;;
13568;SDS011;6856;51.460;7.158;2024-01-15T06:11:13;12.30;;;10.50;;
13568;SDS011;6856;51.460;7.158;2024-01-15T06:13:47;12.10;;;10.80;;
13568;SDS011;6856;51.460;7.158;2024-01-15T06:16:24;13.37;;;9.63;;
13568;SDS011;6856;51.460;7.158;2024-01-15T06:18:58;12.53;;;10.67;;
13568;SDS011;6856;51.460;7.158;2024-01-15T06:21:32;12.80;;;10.70;;
13568;SDS011;6856;51.460;7.158;2024-01-15T06:24:09;11.30;;;10.20;;
13568;SDS011;6856;51.460;7.158;2024-01-15T06:26:46;11.97;;;9.83;;
13568;SDS011;6856;51.460;7.158;2024-01-15T06:29:20;11.27;;;10.07;;
13568;SDS011;6856;51.460;7.158;2024-01-15T06:31:55;11.40;;;9.93;;
13568;SDS011;6856;51.460;7.158;2024-01-15T06:34:29;11.90;;;9.83;;
13568;SDS011;6856;51.460;7.158;2024-01-15T06:37:03;12.50;;;10.13;;
13568;SDS011;6856;51.460;7.158;2024-01-15T06:39:37;13.33;;;10.63;;
13568;SDS011;6856;51.460;7.158;2024-01-15T06:42:13;10.93;;;9.83;;
13568;SDS011;6856;51.460;7.158;2024-01-15T06:44:47;10.70;;;9.60;;
13568;SDS011;6856;51.460;7.158;2024-01-15T06:47:24;11.43;;;10.23;;
13568;SDS011;6856;51.460;7.158;2024-01-15T06:49:58;11.43;;;9.87;;
13568;SDS011;6856;51.460;7.158;2024-01-15T06:52:33;11.43;;;9.70;;
13568;SDS011;6856;51.460;7.158;2024-01-15T06:55:08;10.33;;;9.23;;
13568;SDS011;6856;51.460;7.158;2024-01-15T06:57:42;9.17;;;8.20;;
13568;SDS011;6856;51.460;7.158;2024-01-15T07:00:18;8.10;;;7.30;;
13568;SDS011;6856;51.460;7.158;2024-01-15T07:02:54;11.50;;;7.43;;
13568;SDS011;6856;51.460;7.158;2024-01-15T07:05:28;8.53;;;7.13;;
13568;SDS011;6856;51.460;7.158;2024-01-15T07:08:03;8.43;;;6.90;;
13568;SDS011;6856;51.460;7.158;2024-01-15T07:10:37;7.60;;;5.90;;
13568;SDS011;6856;51.460;7.158;2024-01-15T07:13:11;8.43;;;5.70;;
13568;SDS011;6856;51.460;7.158;2024-01-15T07:15:49;8.17;;;5.17;;
13568;SDS011;6856;51.460;7.158;2024-01-15T07:18:26;7.07;;;5.03;;
13568;SDS011;6856;51.460;7.158;2024-01-15T07:21:00;6.60;;;3.93;;
13568;SDS011;6856;51.460;7.158;2024-01-15T07:23:34;5.77;;;4.10;;
13568;SDS011;6856;51.460;7.158;2024-01-15T07:26:08;4.70;;;3.60;;
13568;SDS011;6856;51.460;7.158;2024-01-15T07:28:42;4.03;;;3.07;;
13568;SDS011;6856;51.460;7.158;2024-01-15T07:31:16;4.83;;;2.93;;
13568;SDS011;6856;51.460;7.158;2024-01-15T07:33:52;4.27;;;3.17;;
13568;SDS011;6856;51.460;7.158;2024-01-15T07:36:26;3.37;;;2.87;;
13568;SDS011;6856;51.460;7.158;2024-01-15T07:39:00;3.13;;;2.53;;
13568;SDS011;6856;51.460;7.158;2024-01-15T07:41:37;3.67;;;2.17;;
13568;SDS011;6856;51.460;7.158;2024-01-15T07:44:11;4.27;;;2.80;;
13568;SDS011;6856;51.460;7.158;2024-01-15T07:46:44;3.33;;;2.73;;
13568;SDS011;6856;51.460;7.158;2024-01-15T07:49:23;3.50;;;2.63;;
13568;SDS011;6856;51.460;7.158;2024-01-15T07:51:56;3.83;;;2.57;;
13568;SDS011;6856;51.460;7.158;2024-01-15T07:54:34;3.07;;;2.23;;
13568;SDS011;6856;51.460;7.158;2024-01-15T07:57:10;4.07;;;2.67;;
13568;SDS011;6856;51.460;7.158;2024-01-15T07:59:44;3.57;;;2.50;;
13568;SDS011;6856;51.460;7.158;2024-01-15T08:02:17;3.97;;;2.40;;
13568;SDS011;6856;51.460;7.158;2024-01-15T08:04:52;3.87;;;2.87;;
13568;SDS011;6856;51.460;7.158;2024-01-15T08:07:26;5.07;;;3.23;;
13568;SDS011;6856;51.460;7.158;2024-01-15T08:10:00;3.93;;;3.20;;
13568;SDS011;6856;51.460;7.158;2024-01-15T08:12:34;5.47;;;4.30;;
13568;SDS011;6856;51.460;7.158;2024-01-15T08:15:08;5.73;;;4.97;;
13568;SDS011;6856;51.460;7.158;2024-01-15T08:17:43;6.23;;;5.40;;
13568;SDS011;6856;51.460;7.158;2024-01-15T08:20:18;7.53;;;6.50;;
13568;SDS011;6856;51.460;7.158;2024-01-15T08:22:52;9.50;;;8.50;;
13568;SDS011;6856;51.460;7.158;2024-01-15T08:25:26;12.03;;;10.77;;
13568;SDS011;6856;51.460;7.158;2024-01-15T08:28:00;12.57;;;11.07;;
13568;SDS011;6856;51.460;7.158;2024-01-15T08:30:34;10.27;;;9.17;;
13568;SDS011;6856;51.460;7.158;2024-01-15T08:33:07;11.97;;;10.57;;
13568;SDS011;6856;51.460;7.158;2024-01-15T08:35:53;9.70;;;8.70;;
13568;SDS011;6856;51.460;7.158;2024-01-15T08:38:27;10.47;;;9.37;;
13568;SDS011;6856;51.460;7.158;2024-01-15T08:41:01;8.67;;;7.80;;
13568;SDS011;6856;51.460;7.158;2024-01-15T08:43:35;8.13;;;7.30;;
13568;SDS011;6856;51.460;7.158;2024-01-15T08:46:09;7.33;;;6.63;;
13568;SDS011;6856;51.460;7.158;2024-01-15T08:48:43;7.37;;;6.67;;
13568;SDS011;6856;51.460;7.158;2024-01-15T08:51:18;6.63;;;6.03;;
13568;SDS011;6856;51.460;7.158;2024-01-15T08:53:53;6.37;;;5.77;;
13568;SDS011;6856;51.460;7.158;2024-01-15T08:56:26;5.77;;;5.23;;
13568;SDS011;6856;51.460;7.158;2024-01-15T08:59:02;6.07;;;5.40;;
13568;SDS011;6856;51.460;7.158;2024-01-15T09:01:35;6.93;;;5.37;;
13568;SDS011;6856;51.460;7.158;2024-01-15T09:04:12;5.80;;;5.20;;
13568;SDS011;6856;51.460;7.158;2024-01-15T09:06:47;5.73;;;5.17;;
13568;SDS011;6856;51.460;7.158;2024-01-15T09:09:23;7.10;;;5.77;;
13568;SDS011;6856;51.460;7.158;2024-01-15T09:11:57;6.43;;;5.83;;
13568;SDS011;6856;51.460;7.158;2024-01-15T09:14:32;6.40;;;5.80;;
13568;SDS011;6856;51.460;7.158;2024-01-15T09:17:08;5.97;;;5.33;;
13568;SDS011;6856;51.460;7.158;2024-01-15T09:19:42;6.23;;;5.63;;
13568;SDS011;6856;51.460;7.158;2024-01-15T09:22:17;6.70;;;6.00;;
13568;SDS011;6856;51.460;7.158;2024-01-15T09:24:52;6.67;;;5.97;;
13568;SDS011;6856;51.460;7.158;2024-01-15T09:27:26;6.17;;;5.57;;
13568;SDS011;6856;51.460;7.158;2024-01-15T09:30:00;5.63;;;5.10;;
13568;SDS011;6856;51.460;7.158;2024-01-15T09:32:35;5.90;;;5.30;;
13568;SDS011;6856;51.460;7.158;2024-01-15T09:35:09;7.17;;;6.47;;
13568;SDS011;6856;51.460;7.158;2024-01-15T09:37:44;6.60;;;5.90;;
13568;SDS011;6856;51.460;7.158;2024-01-15T09:40:19;6.37;;;5.37;;
13568;SDS011;6856;51.460;7.158;2024-01-15T09:42:54;5.57;;;5.07;;
13568;SDS011;6856;51.460;7.158;2024-01-15T09:45:30;5.80;;;5.20;;
13568;SDS011;6856;51.460;7.158;2024-01-15T09:48:04;5.73;;;4.70;;
13568;SDS011;6856;51.460;7.158;2024-01-15T09:50:39;5.73;;;5.17;;
13568;SDS011;6856;51.460;7.158;2024-01-15T09:53:15;5.47;;;4.97;;
13568;SDS011;6856;51.460;7.158;2024-01-15T09:55:49;5.30;;;4.80;;
13568;SDS011;6856;51.460;7.158;2024-01-15T09:58:25;6.13;;;5.53;;
13568;SDS011;6856;51.460;7.158;2024-01-15T10:01:01;6.80;;;5.63;;
13568;SDS011;6856;51.460;7.158;2024-01-15T10:03:39;5.93;;;5.33;;
13568;SDS011;6856;51.460;7.158;2024-01-15T10:06:14;6.03;;;5.30;;
13568;SDS011;6856;51.460;7.158;2024-01-15T10:08:55;5.77;;;5.17;;
13568;SDS011;6856;51.460;7.158;2024-01-15T10:11:32;6.33;;;5.23;;
13568;SDS011;6856;51.460;7.158;2024-01-15T10:14:06;6.80;;;5.93;;
13568;SDS011;6856;51.460;7.158;2024-01-15T10:16:40;5.93;;;5.33;;
13568;SDS011;6856;51.460;7.158;2024-01-15T10:19:15;5.70;;;5.10;;
13568;SDS011;6856;51.460;7.158;2024-01-15T10:21:49;6.33;;;5.53;;
13568;SDS011;6856;51.460;7.158;2024-01-15T10:24:24;6.27;;;5.67;;
13568;SDS011;6856;51.460;7.158;2024-01-15T10:27:04;7.10;;;6.03;;
13568;SDS011;6856;51.460;7.158;2024-01-15T10:29:40;7.03;;;6.30;;
13568;SDS011;6856;51.460;7.158;2024-01-15T10:32:15;5.97;;;5.33;;
13568;SDS011;6856;51.460;7.158;2024-01-15T10:34:50;6.57;;;5.70;;
13568;SDS011;6856;51.460;7.158;2024-01-15T10:37:26;14.63;;;10.83;;
13568;SDS011;6856;51.460;7.158;2024-01-15T10:40:03;12.77;;;9.20;;
13568;SDS011;6856;51.460;7.158;2024-01-15T10:42:39;10.80;;;6.77;;
13568;SDS011;6856;51.460;7.158;2024-01-15T10:45:16;9.10;;;6.40;;
13568;SDS011;6856;51.460;7.158;2024-01-15T10:47:55;7.30;;;5.10;;
13568;SDS011;6856;51.460;7.158;2024-01-15T10:50:34;6.20;;;4.90;;
13568;SDS011;6856;51.460;7.158;2024-01-15T10:53:09;4.83;;;4.03;;
13568;SDS011;6856;51.460;7.158;2024-01-15T10:55:48;3.93;;;3.27;;
13568;SDS011;6856;51.460;7.158;2024-01-15T10:58:24;5.07;;;3.80;;
13568;SDS011;6856;51.460;7.158;2024-01-15T11:01:03;5.43;;;3.57;;
13568;SDS011;6856;51.460;7.158;2024-01-15T11:03:39;7.40;;;4.27;;
13568;SDS011;6856;51.460;7.158;2024-01-15T11:06:16;4.63;;;3.73;;
13568;SDS011;6856;51.460;7.158;2024-01-15T11:08:56;5.07;;;3.93;;
13568;SDS011;6856;51.460;7.158;2024-01-15T11:11:32;5.10;;;4.20;;
13568;SDS011;6856;51.460;7.158;2024-01-15T11:14:09;4.23;;;3.53;;
13568;SDS011;6856;51.460;7.158;2024-01-15T11:16:53;3.93;;;3.53;;
13568;SDS011;6856;51.460;7.158;2024-01-15T11:19:42;4.40;;;3.80;;
13568;SDS011;6856;51.460;7.158;2024-01-15T11:25:23;4.70;;;3.87;;
13568;SDS011;6856;51.460;7.158;2024-01-15T11:27:58;5.93;;;4.00;;
13568;SDS011;6856;51.460;7.158;2024-01-15T11:30:33;5.53;;;4.43;;
13568;SDS011;6856;51.460;7.158;2024-01-15T11:33:11;5.63;;;4.37;;
13568;SDS011;6856;51.460;7.158;2024-01-15T11:36:07;4.90;;;4.40;;
13568;SDS011;6856;51.460;7.158;2024-01-15T11:38:43;4.33;;;3.50;;
13568;SDS011;6856;51.460;7.158;2024-01-15T11:41:20;4.07;;;3.67;;
13568;SDS011;6856;51.460;7.158;2024-01-15T11:43:59;3.70;;;3.17;;
13568;SDS011;6856;51.460;7.158;2024-01-15T11:46:34;3.20;;;2.90;;
13568;SDS011;6856;51.460;7.158;2024-01-15T11:49:26;4.00;;;3.10;;
13568;SDS011;6856;51.460;7.158;2024-01-15T11:52:32;2.93;;;2.63;;
13568;SDS011;6856;51.460;7.158;2024-01-15T11:55:10;3.47;;;2.37;;
13568;SDS011;6856;51.460;7.158;2024-01-15T11:57:50;3.20;;;2.70;;
13568;SDS011;6856;51.460;7.158;2024-01-15T12:00:29;3.83;;;2.57;;
13568;SDS011;6856;51.460;7.158;2024-01-15T12:03:04;3.60;;;2.80;;
13568;SDS011;6856;51.460;7.158;2024-01-15T12:05:38;3.43;;;2.50;;
13568;SDS011;6856;51.460;7.158;2024-01-15T12:08:20;3.37;;;2.37;;
13568;SDS011;6856;51.460;7.158;2024-01-15T12:10:55;6.23;;;5.00;;
13568;SDS011;6856;51.460;7.158;2024-01-15T12:13:29;4.03;;;3.63;;
13568;SDS011;6856;51.460;7.158;2024-01-15T12:16:04;3.87;;;3.20;;
13568;SDS011;6856;51.460;7.158;2024-01-15T12:18:40;5.17;;;3.83;;
13568;SDS011;6856;51.460;7.158;2024-01-15T12:21:16;6.50;;;5.90;;
13568;SDS011;6856;51.460;7.158;2024-01-15T12:23:51;4.77;;;4.30;;
13568;SDS011;6856;51.460;7.158;2024-01-15T12:26:26;6.33;;;5.10;;
13568;SDS011;6856;51.460;7.158;2024-01-15T12:29:01;7.90;;;5.53;;
13568;SDS011;6856;51.460;7.158;2024-01-15T12:31:36;5.60;;;4.47;;
13568;SDS011;6856;51.460;7.158;2024-01-15T12:34:10;3.80;;;2.90;;
13568;SDS011;6856;51.460;7.158;2024-01-15T12:36:45;4.23;;;2.80;;
13568;SDS011;6856;51.460;7.158;2024-01-15T12:39:24;3.57;;;2.60;;
13568;SDS011;6856;51.460;7.158;2024-01-15T12:41:57;4.40;;;2.53;;
13568;SDS011;6856;51.460;7.158;2024-01-15T12:44:32;4.77;;;3.07;;
13568;SDS011;6856;51.460;7.158;2024-01-15T12:47:08;4.00;;;3.57;;
13568;SDS011;6856;51.460;7.158;2024-01-15T12:49:42;5.87;;;5.17;;
13568;SDS011;6856;51.460;7.158;2024-01-15T12:52:21;7.43;;;6.13;;
13568;SDS011;6856;51.460;7.158;2024-01-15T12:54:55;4.40;;;3.77;;
13568;SDS011;6856;51.460;7.158;2024-01-15T12:57:29;4.27;;;3.70;;
13568;SDS011;6856;51.460;7.158;2024-01-15T13:00:04;7.00;;;3.50;;
13568;SDS011;6856;51.460;7.158;2024-01-15T13:02:46;4.83;;;2.70;;
13568;SDS011;6856;51.460;7.158;2024-01-15T13:05:21;4.07;;;2.63;;
13568;SDS011;6856;51.460;7.158;2024-01-15T13:07:56;6.10;;;2.47;;
13568;SDS011;6856;51.460;7.158;2024-01-15T13:10:33;3.97;;;2.27;;
13568;SDS011;6856;51.460;7.158;2024-01-15T13:13:06;3.77;;;2.30;;
13568;SDS011;6856;51.460;7.158;2024-01-15T13:15:40;3.27;;;2.40;;
13568;SDS011;6856;51.460;7.158;2024-01-15T13:18:21;3.17;;;2.83;;
13568;SDS011;6856;51.460;7.158;2024-01-15T13:20:56;4.90;;;3.87;;
13568;SDS011;6856;51.460;7.158;2024-01-15T13:23:30;4.17;;;3.27;;
13568;SDS011;6856;51.460;7.158;2024-01-15T13:26:04;5.83;;;4.40;;
13568;SDS011;6856;51.460;7.158;2024-01-15T13:28:38;5.00;;;3.73;;
13568;SDS011;6856;51.460;7.158;2024-01-15T13:31:12;5.60;;;4.10;;
13568;SDS011;6856;51.460;7.158;2024-01-15T13:33:48;5.27;;;3.40;;
13568;SDS011;6856;51.460;7.158;2024-01-15T13:36:22;5.77;;;3.80;;
13568;SDS011;6856;51.460;7.158;2024-01-15T13:38:56;4.50;;;3.47;;
13568;SDS011;6856;51.460;7.158;2024-01-15T13:41:30;4.13;;;3.73;;
13568;SDS011;6856;51.460;7.158;2024-01-15T13:44:04;3.90;;;3.17;;
13568;SDS011;6856;51.460;7.158;2024-01-15T13:46:39;4.77;;;3.23;;
13568;SDS011;6856;51.460;7.158;2024-01-15T13:49:16;4.67;;;3.73;;
13568;SDS011;6856;51.460;7.158;2024-01-15T13:51:50;3.60;;;3.00;;
13568;SDS011;6856;51.460;7.158;2024-01-15T13:54:24;5.07;;;2.93;;
13568;SDS011;6856;51.460;7.158;2024-01-15T13:57:19;4.77;;;3.30;;
13568;SDS011;6856;51.460;7.158;2024-01-15T13:59:53;5.23;;;3.83;;
13568;SDS011;6856;51.460;7.158;2024-01-15T14:02:26;5.17;;;4.00;;
13568;SDS011;6856;51.460;7.158;2024-01-15T14:05:04;5.00;;;3.67;;
13568;SDS011;6856;51.460;7.158;2024-01-15T14:07:39;6.67;;;4.20;;
13568;SDS011;6856;51.460;7.158;2024-01-15T14:10:14;5.47;;;4.30;;
13568;SDS011;6856;51.460;7.158;2024-01-15T14:12:50;4.70;;;4.13;;
13568;SDS011;6856;51.460;7.158;2024-01-15T14:15:26;5.83;;;5.23;;
13568;SDS011;6856;51.460;7.158;2024-01-15T14:18:00;5.70;;;4.77;;
13568;SDS011;6856;51.460;7.158;2024-01-15T14:20:35;5.07;;;4.10;;
13568;SDS011;6856;51.460;7.158;2024-01-15T14:23:09;5.30;;;4.03;;
13568;SDS011;6856;51.460;7.158;2024-01-15T14:25:46;4.77;;;3.70;;
13568;SDS011;6856;51.460;7.158;2024-01-15T14:28:20;5.20;;;3.63;;
13568;SDS011;6856;51.460;7.158;2024-01-15T14:30:55;3.90;;;3.50;;
13568;SDS011;6856;51.460;7.158;2024-01-15T14:33:32;4.60;;;4.20;;
13568;SDS011;6856;51.460;7.158;2024-01-15T14:36:12;4.83;;;3.90;;
13568;SDS011;6856;51.460;7.158;2024-01-15T14:38:46;5.53;;;4.40;;
13568;SDS011;6856;51.460;7.158;2024-01-15T14:41:21;5.07;;;4.27;;
13568;SDS011;6856;51.460;7.158;2024-01-15T14:43:56;5.53;;;4.03;;
13568;SDS011;6856;51.460;7.158;2024-01-15T14:46:30;6.70;;;4.00;;
13568;SDS011;6856;51.460;7.158;2024-01-15T14:49:04;11.07;;;7.80;;
13568;SDS011;6856;51.460;7.158;2024-01-15T14:51:40;9.13;;;6.83;;
13568;SDS011;6856;51.460;7.158;2024-01-15T14:54:15;11.53;;;8.43;;
13568;SDS011;6856;51.460;7.158;2024-01-15T14:56:52;13.43;;;9.73;;
13568;SDS011;6856;51.460;7.158;2024-01-15T14:59:26;10.67;;;7.00;;
13568;SDS011;6856;51.460;7.158;2024-01-15T15:02:00;10.83;;;6.90;;
13568;SDS011;6856;51.460;7.158;2024-01-15T15:04:35;13.00;;;8.77;;
13568;SDS011;6856;51.460;7.158;2024-01-15T15:07:11;10.97;;;5.10;;
13568;SDS011;6856;51.460;7.158;2024-01-15T15:09:46;6.33;;;4.73;;
13568;SDS011;6856;51.460;7.158;2024-01-15T15:12:22;7.37;;;4.70;;
13568;SDS011;6856;51.460;7.158;2024-01-15T15:14:58;4.90;;;3.93;;
13568;SDS011;6856;51.460;7.158;2024-01-15T15:17:40;5.63;;;3.60;;
13568;SDS011;6856;51.460;7.158;2024-01-15T15:20:14;4.40;;;3.03;;
13568;SDS011;6856;51.460;7.158;2024-01-15T15:22:53;4.57;;;3.30;;
13568;SDS011;6856;51.460;7.158;2024-01-15T15:25:27;3.57;;;2.90;;
13568;SDS011;6856;51.460;7.158;2024-01-15T15:28:02;4.00;;;2.80;;
13568;SDS011;6856;51.460;7.158;2024-01-15T15:30:38;4.87;;;2.77;;
13568;SDS011;6856;51.460;7.158;2024-01-15T15:33:16;4.37;;;2.53;;
13568;SDS011;6856;51.460;7.158;2024-01-15T15:35:51;2.80;;;2.50;;
13568;SDS011;6856;51.460;7.158;2024-01-15T15:38:27;3.50;;;2.40;;
13568;SDS011;6856;51.460;7.158;2024-01-15T15:41:02;2.57;;;2.37;;
13568;SDS011;6856;51.460;7.158;2024-01-15T15:43:36;3.07;;;2.40;;